Reklama

Seznam meteostanic a jejich METAR

Vyhledat místa podle abecedy:
A B C D E F G H I J K L M N O P Q R S T U V W X Y Z

Filtrovat:

ID stanice:
a/nebo
Název místa (fulltext):
 
Místo (ID)Naposledy načteno 
Brno - Tuřany (Brno/Tu) 18.10.2018 22:00 UTC Zobrazit data
Místo: Brno - Tuřany
Teplota: 11 °C (pocitová: 9.2 °C)
Vítr: 1 m/s z(e) 270°
Počasí: skorojasno
Dohlednost: 25 km
Zákl. oblačnosti: 1/8 6900 m
Vlhkost: 82%
Červená - Opava (Cervena/uL) 18.10.2018 22:00 UTC Zobrazit data
Místo: Červená - Opava
Teplota: 11 °C (pocitová: 6.7 °C)
Vítr: 4 m/s z(e) 20°
Počasí:
Dohlednost: 11 km
Zákl. oblačnosti: N/A
Vlhkost: 82%
České Budějovice (C.Budej/po) 18.10.2018 22:00 UTC Zobrazit data
Místo: České Budějovice
Teplota: 7 °C (pocitová: 4.3 °C)
Vítr: 1 m/s z(e) 150°
Počasí: zataženo
Dohlednost: 3000 m
Zákl. oblačnosti: N/A
Vlhkost: 100%
Cheb (Cheb) 18.10.2018 22:00 UTC Zobrazit data
Místo: Cheb
Teplota: 10 °C (pocitová: 8 °C)
Vítr: 1 m/s z(e) 330°
Počasí: zataženo
Dohlednost: 2300 m
Zákl. oblačnosti: 1/8 3000 m
Vlhkost: 94%
Chotusice - Čáslav (Caslav) 18.10.2018 22:00 UTC Zobrazit data
Místo: Chotusice - Čáslav
Teplota: 9 °C (pocitová: 6.8 °C)
Vítr: 1 m/s z(e) 190°
Počasí: zataženo
Dohlednost: 9 km
Zákl. oblačnosti: N/A
Vlhkost: 87%
Churáňov (Churanov) 18.10.2018 22:00 UTC Zobrazit data
Místo: Churáňov
Teplota: 8 °C (pocitová: 5.5 °C)
Vítr: 1 m/s z(e) 30°
Počasí: zataženo
Dohlednost: 2500 m
Zákl. oblačnosti: 8/8 210 m
Vlhkost: 93%
Doksany - Litoměřice (Doksany) 18.10.2018 22:00 UTC Zobrazit data
Místo: Doksany - Litoměřice
Teplota: 9 °C (pocitová: 6.8 °C)
Vítr: 1 m/s z(e) 180°
Počasí: zataženo
Dohlednost: 1800 m
Zákl. oblačnosti: 1/8 1500 m;5/8 4800 m
Vlhkost: 100%
Dukovany (Dukovany) 18.10.2018 22:00 UTC Zobrazit data
Místo: Dukovany
Teplota: 10 °C (pocitová: 4.8 °C)
Vítr: 5 m/s z(e) 350°
Počasí: zataženo
Dohlednost: 8 km
Zákl. oblačnosti: N/A
Vlhkost: 88%
Holešov (Holesov) 18.10.2018 22:00 UTC Zobrazit data
Místo: Holešov
Teplota: 9 °C (pocitová: 6.8 °C)
Vítr: 1 m/s z(e) 100°
Počasí: zataženo
Dohlednost: 9 km
Zákl. oblačnosti: N/A
Vlhkost: 94%
Kadaň - Tušimice (Tusimice) 18.10.2018 22:00 UTC Zobrazit data
Místo: Kadaň - Tušimice
Teplota: 11 °C (pocitová: 7.3 °C)
Vítr: 3 m/s z(e) 290°
Počasí: zataženo
Dohlednost: 5 km
Zákl. oblačnosti: N/A
Vlhkost: 88%
Karlovy Vary (K.Vary) 18.10.2018 22:00 UTC Zobrazit data
Místo: Karlovy Vary
Teplota: 6 °C (pocitová: 3.1 °C)
Vítr: 1 m/s z(e) 200°
Počasí: zataženo
Dohlednost: 3500 m
Zákl. oblačnosti: 3/8 3000 m
Vlhkost: 100%
Kocelovice (Kocelovice) 18.10.2018 22:00 UTC Zobrazit data
Místo: Kocelovice
Teplota: 10 °C (pocitová: 6.9 °C)
Vítr: 2 m/s z(e) 320°
Počasí: zataženo
Dohlednost: 4500 m
Zákl. oblačnosti: 8/8 930 m
Vlhkost: 88%
Kopisty (Kopisty) 18.10.2018 21:00 UTC Zobrazit data
Místo: Kopisty
Teplota: 12 °C (pocitová: 9.5 °C)
Vítr: 2 m/s z(e) 300°
Počasí: zataženo
Dohlednost: 4500 m
Zákl. oblačnosti: N/A
Vlhkost: 88%
Kostelní Myslová (K.Myslova) 18.10.2018 22:00 UTC Zobrazit data
Místo: Kostelní Myslová
Teplota: 10 °C (pocitová: 8 °C)
Vítr: 1 m/s z(e) 0°
Počasí: zataženo
Dohlednost: 6 km
Zákl. oblačnosti: N/A
Vlhkost: 88%
Křešín - Kramolín (Kramolin) 18.10.2018 22:00 UTC Zobrazit data
Místo: Křešín - Kramolín
Teplota: 9 °C (pocitová: 4.7 °C)
Vítr: 3 m/s z(e) 290°
Počasí: zataženo
Dohlednost: 2800 m
Zákl. oblačnosti: 8/8 1080 m
Vlhkost: 94%
Kuchařovice - Znojmo (Kucharovic) 18.10.2018 22:00 UTC Zobrazit data
Místo: Kuchařovice - Znojmo
Teplota: 10 °C (pocitová: 6 °C)
Vítr: 3 m/s z(e) 340°
Počasí: zataženo
Dohlednost: 9 km
Zákl. oblačnosti: 8/8 1350 m
Vlhkost: 82%
Liberec (Liberec) 18.10.2018 22:00 UTC Zobrazit data
Místo: Liberec
Teplota: 10 °C (pocitová: 6.9 °C)
Vítr: 2 m/s z(e) 310°
Počasí: zataženo
Dohlednost: 1800 m
Zákl. oblačnosti: 8/8 120 m
Vlhkost: 94%
Luká (Luka) 18.10.2018 22:00 UTC Zobrazit data
Místo: Luká
Teplota: 11 °C (pocitová: 8.2 °C)
Vítr: 2 m/s z(e) 310°
Počasí:
Dohlednost: 26 km
Zákl. oblačnosti: N/A
Vlhkost: 77%
Lysá Hora (Lysa Hora) 18.10.2018 22:00 UTC Zobrazit data
Místo: Lysá Hora
Teplota: 8 °C (pocitová: 1.6 °C)
Vítr: 6 m/s z(e) 40°
Počasí:
Dohlednost: 26 km
Zákl. oblačnosti: N/A
Vlhkost: 82%
Milešovka (Milesovka) 18.10.2018 22:00 UTC Zobrazit data
Místo: Milešovka
Teplota: 8 °C (pocitová: 0.3 °C)
Vítr: 10 m/s z(e) 350°
Počasí: zataženo
Dohlednost: 3000 m
Zákl. oblačnosti: 2/8 1080 m
Vlhkost: 100%
Mošnov (Ostrava/Mo) 18.10.2018 22:00 UTC Zobrazit data
Místo: Mošnov
Teplota: 9 °C (pocitová: 5.6 °C)
Vítr: 2 m/s z(e) 130°
Počasí: mlha
Dohlednost: 500 m
Zákl. oblačnosti: 3/8 120 m
Vlhkost: 100%
Náměšť nad Oslavou (Namest n/O) 18.10.2018 22:00 UTC Zobrazit data
Místo: Náměšť nad Oslavou
Teplota: 11 °C (pocitová: 7.3 °C)
Vítr: 3 m/s z(e) 330°
Počasí: zataženo
Dohlednost: 8 km
Zákl. oblačnosti: N/A
Vlhkost: 77%
Pardubice (Pardubice) 18.10.2018 22:00 UTC Zobrazit data
Místo: Pardubice
Teplota: 9 °C (pocitová: 18.7 °C)
Vítr: 0 m/s z(e) 0°
Počasí: oblačno
Dohlednost: 10 km
Zákl. oblačnosti: 4/8 1500 m
Vlhkost: 87%
Pec pod Sněžkou (Pec p.Snez) 18.10.2018 22:00 UTC Zobrazit data
Místo: Pec pod Sněžkou
Teplota: 6 °C (pocitová: 3.1 °C)
Vítr: 1 m/s z(e) 210°
Počasí: zataženo
Dohlednost: 9 km
Zákl. oblačnosti: N/A
Vlhkost: 93%
Plzeň město - Mikulka (Plzen/Miku) 18.10.2018 22:00 UTC Zobrazit data
Místo: Plzeň město - Mikulka
Teplota: 10 °C (pocitová: 8 °C)
Vítr: 1 m/s z(e) 350°
Počasí: zataženo
Dohlednost: 2900 m
Zákl. oblačnosti: 5/8 1200 m
Vlhkost: 88%
Polom (Polom) 18.10.2018 22:00 UTC Zobrazit data
Místo: Polom
Teplota: 11 °C (pocitová: 7.3 °C)
Vítr: 3 m/s z(e) 10°
Počasí: zataženo
Dohlednost: 8 km
Zákl. oblačnosti: N/A
Vlhkost: 82%
Praha - Karlov (Praha/Kar) 18.10.2018 22:00 UTC Zobrazit data
Místo: Praha - Karlov
Teplota: 12 °C (pocitová: 8.7 °C)
Vítr: 3 m/s z(e) 330°
Počasí: zataženo
Dohlednost: 3300 m
Zákl. oblačnosti: N/A
Vlhkost: 82%
Praha - Kbely (Praha/Kbe) 18.10.2018 22:00 UTC Zobrazit data
Místo: Praha - Kbely
Teplota: 11 °C (pocitová: 6.7 °C)
Vítr: 4 m/s z(e) 320°
Počasí: zataženo
Dohlednost: 4000 m
Zákl. oblačnosti: N/A
Vlhkost: 88%
Praha - Libuš (Praha/Lib) 18.10.2018 22:00 UTC Zobrazit data
Místo: Praha - Libuš
Teplota: 11 °C (pocitová: 8.2 °C)
Vítr: 2 m/s z(e) 0°
Počasí: zataženo
Dohlednost: 2700 m
Zákl. oblačnosti: 1/8 660 m
Vlhkost: 88%
Praha - Ruzyně (Praha/Ru) 18.10.2018 22:00 UTC Zobrazit data
Místo: Praha - Ruzyně
Teplota: 9 °C (pocitová: 6.8 °C)
Vítr: 1 m/s z(e) 330°
Počasí: zataženo
Dohlednost: 3800 m
Zákl. oblačnosti: 1/8 300 m
Vlhkost: 94%
Přibyslav (Pribyslav) 18.10.2018 22:00 UTC Zobrazit data
Místo: Přibyslav
Teplota: 7 °C (pocitová: 4.3 °C)
Vítr: 1 m/s z(e) 0°
Počasí: zataženo
Dohlednost: 2700 m
Zákl. oblačnosti: 2/8 1500 m
Vlhkost: 93%
Přimda (Primda) 18.10.2018 22:00 UTC Zobrazit data
Místo: Přimda
Teplota: 9 °C (pocitová: 5.6 °C)
Vítr: 2 m/s z(e) 50°
Počasí: zataženo
Dohlednost: 3100 m
Zákl. oblačnosti: 6/8 930 m
Vlhkost: 87%
Šerák (Serak) 18.10.2018 21:00 UTC Zobrazit data
Místo: Šerák
Teplota: 7 °C (pocitová: 2 °C)
Vítr: 3 m/s z(e) 40°
Počasí: mlha
Dohlednost: 800 m
Zákl. oblačnosti: 3/8 30 m;7/8 2100 m
Vlhkost: 100%
Svratouch (Svratouch) 18.10.2018 22:00 UTC Zobrazit data
Místo: Svratouch
Teplota: 10 °C (pocitová: 5.3 °C)
Vítr: 4 m/s z(e) 360°
Počasí: zataženo
Dohlednost: 6 km
Zákl. oblačnosti: N/A
Vlhkost: 88%
Temelín (Temelin) 18.10.2018 22:00 UTC Zobrazit data
Místo: Temelín
Teplota: 11 °C (pocitová: 7.3 °C)
Vítr: 3 m/s z(e) 350°
Počasí: zataženo
Dohlednost: 4900 m
Zákl. oblačnosti: N/A
Vlhkost: 88%
Ústí nad Labem - Kočkov (Usti n/L) 18.10.2018 22:00 UTC Zobrazit data
Místo: Ústí nad Labem - Kočkov
Teplota: 10 °C (pocitová: 6.9 °C)
Vítr: 2 m/s z(e) 50°
Počasí: zataženo
Dohlednost: 2100 m
Zákl. oblačnosti: N/A
Vlhkost: 94%
Ústí nad Orlicí (Usti n/O) 18.10.2018 22:00 UTC Zobrazit data
Místo: Ústí nad Orlicí
Teplota: 8 °C (pocitová: 5.5 °C)
Vítr: 1 m/s z(e) 0°
Počasí: skoro zataženo
Dohlednost: 12 km
Zákl. oblačnosti: 6/8 3300 m
Vlhkost: 93%
Aalborg (EKYT) 17.10.2018 07:53 UTC Zobrazit METAR
EKYT 170753Z 13001KT 5000 BR NSC 13/13 Q1016
Aarhus (EKAH) 29.09.2018 16:50 UTC Zobrazit METAR
EKAH 291650Z 23006KT 190V260 9999 FEW030 BKN050 12/07 Q1020
Abu Dhabi (OMAA) 18.10.2018 22:00 UTC Zobrazit METAR
OMAA 182200Z 06005KT 360V070 CAVOK 29/19 Q1011 NOSIG
Abuja (DNAA) 18.10.2018 22:00 UTC Zobrazit METAR
DNAA 182200Z 08003KT 9999 FEW009 25/22 Q1013 NOSIG
Accra (DGAA) 18.10.2018 22:00 UTC Zobrazit METAR
DGAA 182200Z 22006KT 9999 FEW019 BKN036 28/24 Q1012 NOSIG
Addis Abeba (HAAB) 18.10.2018 22:00 UTC Zobrazit METAR
HAAB 182200Z 09006KT 9999 BKN025 14/12 Q1025
Agana (PGUM) 18.10.2018 21:54 UTC Zobrazit METAR
PGUM 182154Z 36008KT 10SM CLR 29/27 A2989 RMK AO2 SLP113 T02940267
Ahe Island (NTHE) Zatím nenačteno  
Akureyri (BIAR) 18.10.2018 22:00 UTC Zobrazit METAR
BIAR 182200Z 20003KT 150V320 9999 BKN052 08/03 Q0988
Almaty (UAAA) Zatím nenačteno  
Amman (OJAM) 18.10.2018 22:00 UTC Zobrazit METAR
OJAM 182200Z 31005KT 3000 DU NSC 19/16 Q1015 NOSIG
Amsterdam (EHAM) 18.10.2018 21:55 UTC Zobrazit METAR
EHAM 182155Z 08006KT CAVOK 10/08 Q1026 NOSIG
Antananarivo (FMMI) 18.10.2018 09:00 UTC Zobrazit METAR
FMMI 180900Z VRB04KT 9999 BKN023 29/14 Q1017 NOSIG
1 2 3 ... 9 Další
Reklama

Počasí na Váš email

Emaily jsou bez reklamy a bez spamu



Odhlásit newsletter

Reklama


Lunární kalendář

  • 24.10.
  • 31.10.
  • 07.11.
  • 15.11.



Reklama


Reklama
Povinné ručení
Reklama



Reklama